sensor_id;sensor_type;location;lat;lon;timestamp;temperature;humidity
22436;DHT22;11385;50.822;4.324;2023-04-01T00:01:05;9.80;99.90
22436;DHT22;11385;50.822;4.324;2023-04-01T00:03:34;9.90;99.90
22436;DHT22;11385;50.822;4.324;2023-04-01T00:06:02;9.90;99.90
22436;DHT22;11385;50.822;4.324;2023-04-01T00:08:29;9.90;99.90
22436;DHT22;11385;50.822;4.324;2023-04-01T00:10:56;9.70;99.90
22436;DHT22;11385;50.822;4.324;2023-04-01T00:13:25;9.90;99.90
22436;DHT22;11385;50.822;4.324;2023-04-01T00:15:53;9.90;99.90
22436;DHT22;11385;50.822;4.324;2023-04-01T00:18:20;9.90;99.90
22436;DHT22;11385;50.822;4.324;2023-04-01T00:20:49;9.80;99.90
22436;DHT22;11385;50.822;4.324;2023-04-01T00:23:18;9.90;99.90
22436;DHT22;11385;50.822;4.324;2023-04-01T00:25:46;9.80;99.90
22436;DHT22;11385;50.822;4.324;2023-04-01T00:28:16;9.80;99.90
22436;DHT22;11385;50.822;4.324;2023-04-01T00:30:42;9.80;99.90
22436;DHT22;11385;50.822;4.324;2023-04-01T00:33:10;9.80;99.90
22436;DHT22;11385;50.822;4.324;2023-04-01T00:35:37;9.70;99.90
22436;DHT22;11385;50.822;4.324;2023-04-01T00:38:04;9.80;99.90
22436;DHT22;11385;50.822;4.324;2023-04-01T00:40:36;9.70;99.90
22436;DHT22;11385;50.822;4.324;2023-04-01T00:43:05;9.70;99.90
22436;DHT22;11385;50.822;4.324;2023-04-01T00:45:37;9.80;99.90
22436;DHT22;11385;50.822;4.324;2023-04-01T00:48:07;9.80;99.90
22436;DHT22;11385;50.822;4.324;2023-04-01T00:50:35;9.70;99.90
22436;DHT22;11385;50.822;4.324;2023-04-01T00:53:03;9.70;99.90
22436;DHT22;11385;50.822;4.324;2023-04-01T00:55:34;9.70;99.90
22436;DHT22;11385;50.822;4.324;2023-04-01T00:58:04;9.70;99.90
22436;DHT22;11385;50.822;4.324;2023-04-01T01:00:32;9.70;99.90
22436;DHT22;11385;50.822;4.324;2023-04-01T01:02:59;9.80;99.90
22436;DHT22;11385;50.822;4.324;2023-04-01T01:08:18;9.80;99.90
22436;DHT22;11385;50.822;4.324;2023-04-01T01:10:46;9.80;99.90
22436;DHT22;11385;50.822;4.324;2023-04-01T01:13:21;9.80;99.90
22436;DHT22;11385;50.822;4.324;2023-04-01T01:15:56;9.80;99.90
22436;DHT22;11385;50.822;4.324;2023-04-01T01:18:35;9.80;99.90
22436;DHT22;11385;50.822;4.324;2023-04-01T01:23:57;9.80;99.90
22436;DHT22;11385;50.822;4.324;2023-04-01T01:26:34;9.90;99.90
22436;DHT22;11385;50.822;4.324;2023-04-01T01:29:16;9.80;99.90
22436;DHT22;11385;50.822;4.324;2023-04-01T01:34:28;9.80;99.90
22436;DHT22;11385;50.822;4.324;2023-04-01T01:36:57;9.90;99.90
22436;DHT22;11385;50.822;4.324;2023-04-01T01:39:28;9.90;99.90
22436;DHT22;11385;50.822;4.324;2023-04-01T01:41:57;9.80;99.90
22436;DHT22;11385;50.822;4.324;2023-04-01T01:44:26;9.80;99.90
22436;DHT22;11385;50.822;4.324;2023-04-01T01:46:55;9.90;99.90
22436;DHT22;11385;50.822;4.324;2023-04-01T01:49:22;9.80;99.90
22436;DHT22;11385;50.822;4.324;2023-04-01T01:51:50;9.70;99.90
22436;DHT22;11385;50.822;4.324;2023-04-01T01:54:18;9.80;99.90
22436;DHT22;11385;50.822;4.324;2023-04-01T01:56:47;9.80;99.90
22436;DHT22;11385;50.822;4.324;2023-04-01T01:59:16;9.70;99.90
22436;DHT22;11385;50.822;4.324;2023-04-01T02:01:47;9.80;99.90
22436;DHT22;11385;50.822;4.324;2023-04-01T02:04:15;9.80;99.90
22436;DHT22;11385;50.822;4.324;2023-04-01T02:06:47;9.90;99.90
22436;DHT22;11385;50.822;4.324;2023-04-01T02:09:14;10.00;99.90
22436;DHT22;11385;50.822;4.324;2023-04-01T02:11:48;9.90;99.90
22436;DHT22;11385;50.822;4.324;2023-04-01T02:14:20;9.80;99.90
22436;DHT22;11385;50.822;4.324;2023-04-01T02:17:09;9.70;99.90
22436;DHT22;11385;50.822;4.324;2023-04-01T02:19:43;9.60;99.90
22436;DHT22;11385;50.822;4.324;2023-04-01T02:22:13;9.50;99.90
22436;DHT22;11385;50.822;4.324;2023-04-01T02:24:41;9.50;99.90
22436;DHT22;11385;50.822;4.324;2023-04-01T02:27:09;9.50;99.90
22436;DHT22;11385;50.822;4.324;2023-04-01T02:29:37;9.50;99.90
22436;DHT22;11385;50.822;4.324;2023-04-01T02:32:05;9.50;99.90
22436;DHT22;11385;50.822;4.324;2023-04-01T02:34:32;9.50;99.90
22436;DHT22;11385;50.822;4.324;2023-04-01T02:37:00;9.60;99.90
22436;DHT22;11385;50.822;4.324;2023-04-01T02:39:27;9.60;99.90
22436;DHT22;11385;50.822;4.324;2023-04-01T02:41:54;9.60;99.90
22436;DHT22;11385;50.822;4.324;2023-04-01T02:44:20;9.60;99.90
22436;DHT22;11385;50.822;4.324;2023-04-01T02:46:47;9.60;99.90
22436;DHT22;11385;50.822;4.324;2023-04-01T02:49:14;9.60;99.90
22436;DHT22;11385;50.822;4.324;2023-04-01T02:51:41;9.60;99.90
22436;DHT22;11385;50.822;4.324;2023-04-01T02:54:07;9.70;99.90
22436;DHT22;11385;50.822;4.324;2023-04-01T02:56:34;9.70;99.90
22436;DHT22;11385;50.822;4.324;2023-04-01T02:59:01;9.70;99.90
22436;DHT22;11385;50.822;4.324;2023-04-01T03:01:28;9.70;99.90
22436;DHT22;11385;50.822;4.324;2023-04-01T03:03:54;9.60;99.90
22436;DHT22;11385;50.822;4.324;2023-04-01T03:06:21;9.50;99.90
22436;DHT22;11385;50.822;4.324;2023-04-01T03:08:48;9.50;99.90
22436;DHT22;11385;50.822;4.324;2023-04-01T03:11:14;9.50;99.90
22436;DHT22;11385;50.822;4.324;2023-04-01T03:13:41;9.50;99.90
22436;DHT22;11385;50.822;4.324;2023-04-01T03:16:08;9.60;99.90
22436;DHT22;11385;50.822;4.324;2023-04-01T03:18:34;9.60;99.90
22436;DHT22;11385;50.822;4.324;2023-04-01T03:21:13;9.50;99.90
22436;DHT22;11385;50.822;4.324;2023-04-01T03:23:40;9.50;99.90
22436;DHT22;11385;50.822;4.324;2023-04-01T03:26:07;9.60;99.90
22436;DHT22;11385;50.822;4.324;2023-04-01T03:28:34;9.60;99.90
22436;DHT22;11385;50.822;4.324;2023-04-01T03:31:01;9.50;99.90
22436;DHT22;11385;50.822;4.324;2023-04-01T03:33:27;9.50;99.90
22436;DHT22;11385;50.822;4.324;2023-04-01T03:35:54;9.40;99.90
22436;DHT22;11385;50.822;4.324;2023-04-01T03:38:21;9.50;99.90
22436;DHT22;11385;50.822;4.324;2023-04-01T03:40:48;9.60;99.90
22436;DHT22;11385;50.822;4.324;2023-04-01T03:43:14;9.50;99.90
22436;DHT22;11385;50.822;4.324;2023-04-01T03:45:45;9.60;99.90
22436;DHT22;11385;50.822;4.324;2023-04-01T03:48:14;9.50;99.90
22436;DHT22;11385;50.822;4.324;2023-04-01T03:50:41;9.60;99.90
22436;DHT22;11385;50.822;4.324;2023-04-01T03:53:08;9.60;99.90
22436;DHT22;11385;50.822;4.324;2023-04-01T03:55:36;9.60;99.90
22436;DHT22;11385;50.822;4.324;2023-04-01T03:58:04;9.60;99.90
22436;DHT22;11385;50.822;4.324;2023-04-01T04:00:31;9.60;99.90
22436;DHT22;11385;50.822;4.324;2023-04-01T04:02:59;9.60;99.90
22436;DHT22;11385;50.822;4.324;2023-04-01T04:05:26;9.50;99.90
22436;DHT22;11385;50.822;4.324;2023-04-01T04:07:53;9.50;99.90
22436;DHT22;11385;50.822;4.324;2023-04-01T04:10:20;9.40;99.90
22436;DHT22;11385;50.822;4.324;2023-04-01T04:12:49;9.40;99.90
22436;DHT22;11385;50.822;4.324;2023-04-01T04:15:16;9.40;99.90
22436;DHT22;11385;50.822;4.324;2023-04-01T04:17:44;9.40;99.90
22436;DHT22;11385;50.822;4.324;2023-04-01T04:20:11;9.40;99.90
22436;DHT22;11385;50.822;4.324;2023-04-01T04:22:38;9.40;99.90
22436;DHT22;11385;50.822;4.324;2023-04-01T04:25:05;9.40;99.90
22436;DHT22;11385;50.822;4.324;2023-04-01T04:27:33;9.50;99.90
22436;DHT22;11385;50.822;4.324;2023-04-01T04:29:59;9.50;99.90
22436;DHT22;11385;50.822;4.324;2023-04-01T04:32:26;9.40;99.90
22436;DHT22;11385;50.822;4.324;2023-04-01T04:34:53;9.30;99.90
22436;DHT22;11385;50.822;4.324;2023-04-01T04:37:19;9.30;99.90
22436;DHT22;11385;50.822;4.324;2023-04-01T04:39:46;9.30;99.90
22436;DHT22;11385;50.822;4.324;2023-04-01T04:42:13;9.30;99.90
22436;DHT22;11385;50.822;4.324;2023-04-01T04:44:39;9.40;99.90
22436;DHT22;11385;50.822;4.324;2023-04-01T04:47:06;9.40;99.90
22436;DHT22;11385;50.822;4.324;2023-04-01T04:49:33;9.40;99.90
22436;DHT22;11385;50.822;4.324;2023-04-01T04:51:59;9.40;99.90
22436;DHT22;11385;50.822;4.324;2023-04-01T04:54:26;9.40;99.90
22436;DHT22;11385;50.822;4.324;2023-04-01T04:56:53;9.50;99.90
22436;DHT22;11385;50.822;4.324;2023-04-01T04:59:20;9.50;99.90
22436;DHT22;11385;50.822;4.324;2023-04-01T05:01:47;9.40;99.90
22436;DHT22;11385;50.822;4.324;2023-04-01T05:04:14;9.40;99.90
22436;DHT22;11385;50.822;4.324;2023-04-01T05:06:42;9.30;99.90
22436;DHT22;11385;50.822;4.324;2023-04-01T05:09:09;9.40;99.90
22436;DHT22;11385;50.822;4.324;2023-04-01T05:11:36;9.40;99.90
22436;DHT22;11385;50.822;4.324;2023-04-01T05:14:03;9.30;99.90
22436;DHT22;11385;50.822;4.324;2023-04-01T05:16:30;9.30;99.90
22436;DHT22;11385;50.822;4.324;2023-04-01T05:18:57;9.30;99.90
22436;DHT22;11385;50.822;4.324;2023-04-01T05:21:24;9.30;99.90
22436;DHT22;11385;50.822;4.324;2023-04-01T05:23:50;9.20;99.90
22436;DHT22;11385;50.822;4.324;2023-04-01T05:26:17;9.30;99.90
22436;DHT22;11385;50.822;4.324;2023-04-01T05:28:43;9.20;99.90
22436;DHT22;11385;50.822;4.324;2023-04-01T05:31:10;9.20;99.90
22436;DHT22;11385;50.822;4.324;2023-04-01T05:33:38;9.20;99.90
22436;DHT22;11385;50.822;4.324;2023-04-01T05:36:07;9.30;99.90
22436;DHT22;11385;50.822;4.324;2023-04-01T05:38:33;9.20;99.90
22436;DHT22;11385;50.822;4.324;2023-04-01T05:41:01;9.30;99.90
22436;DHT22;11385;50.822;4.324;2023-04-01T05:43:28;9.30;99.90
22436;DHT22;11385;50.822;4.324;2023-04-01T05:45:56;9.30;99.90
22436;DHT22;11385;50.822;4.324;2023-04-01T05:48:23;9.30;99.90
22436;DHT22;11385;50.822;4.324;2023-04-01T05:50:49;9.30;99.90
22436;DHT22;11385;50.822;4.324;2023-04-01T05:53:17;9.30;99.90
22436;DHT22;11385;50.822;4.324;2023-04-01T05:55:43;9.30;99.90
22436;DHT22;11385;50.822;4.324;2023-04-01T05:58:10;9.40;99.90
22436;DHT22;11385;50.822;4.324;2023-04-01T06:00:37;9.30;99.90
22436;DHT22;11385;50.822;4.324;2023-04-01T06:03:04;9.30;99.90
22436;DHT22;11385;50.822;4.324;2023-04-01T06:05:38;9.30;99.90
22436;DHT22;11385;50.822;4.324;2023-04-01T06:08:10;9.20;99.90
22436;DHT22;11385;50.822;4.324;2023-04-01T06:11:01;9.20;99.90
22436;DHT22;11385;50.822;4.324;2023-04-01T06:13:51;9.10;99.90
22436;DHT22;11385;50.822;4.324;2023-04-01T06:16:22;9.20;99.90
22436;DHT22;11385;50.822;4.324;2023-04-01T06:18:53;9.20;99.90
22436;DHT22;11385;50.822;4.324;2023-04-01T06:27:14;9.30;99.90
22436;DHT22;11385;50.822;4.324;2023-04-01T06:29:50;9.20;99.90
22436;DHT22;11385;50.822;4.324;2023-04-01T06:32:22;9.30;99.90
22436;DHT22;11385;50.822;4.324;2023-04-01T06:34:54;9.30;99.90
22436;DHT22;11385;50.822;4.324;2023-04-01T06:37:46;9.20;99.90
22436;DHT22;11385;50.822;4.324;2023-04-01T06:40:22;9.20;99.90
22436;DHT22;11385;50.822;4.324;2023-04-01T06:43:01;9.20;99.90
22436;DHT22;11385;50.822;4.324;2023-04-01T06:45:37;9.20;99.90
22436;DHT22;11385;50.822;4.324;2023-04-01T06:48:21;9.30;99.90
22436;DHT22;11385;50.822;4.324;2023-04-01T06:53:51;9.40;99.90
22436;DHT22;11385;50.822;4.324;2023-04-01T06:56:18;9.30;99.90
22436;DHT22;11385;50.822;4.324;2023-04-01T06:58:49;9.40;99.90
22436;DHT22;11385;50.822;4.324;2023-04-01T07:01:24;9.40;99.90
22436;DHT22;11385;50.822;4.324;2023-04-01T07:03:54;9.40;99.90
22436;DHT22;11385;50.822;4.324;2023-04-01T07:06:30;9.40;99.90
22436;DHT22;11385;50.822;4.324;2023-04-01T07:09:00;9.40;99.90
22436;DHT22;11385;50.822;4.324;2023-04-01T07:11:31;9.40;99.90
22436;DHT22;11385;50.822;4.324;2023-04-01T07:14:04;9.40;99.90
22436;DHT22;11385;50.822;4.324;2023-04-01T07:16:43;9.40;99.90
22436;DHT22;11385;50.822;4.324;2023-04-01T07:19:36;9.40;99.90
22436;DHT22;11385;50.822;4.324;2023-04-01T07:22:09;9.40;99.90
22436;DHT22;11385;50.822;4.324;2023-04-01T07:24:37;9.30;99.90
22436;DHT22;11385;50.822;4.324;2023-04-01T07:27:09;9.40;99.90
22436;DHT22;11385;50.822;4.324;2023-04-01T07:29:36;9.50;99.90
22436;DHT22;11385;50.822;4.324;2023-04-01T07:32:21;9.60;99.90
22436;DHT22;11385;50.822;4.324;2023-04-01T07:35:13;9.50;99.90
22436;DHT22;11385;50.822;4.324;2023-04-01T07:38:20;9.60;99.90
22436;DHT22;11385;50.822;4.324;2023-04-01T07:40:43;9.60;99.90
22436;DHT22;11385;50.822;4.324;2023-04-01T07:43:25;9.60;99.90
22436;DHT22;11385;50.822;4.324;2023-04-01T07:45:59;9.50;99.90
22436;DHT22;11385;50.822;4.324;2023-04-01T07:48:44;9.50;99.90
22436;DHT22;11385;50.822;4.324;2023-04-01T07:51:15;9.50;99.90
22436;DHT22;11385;50.822;4.324;2023-04-01T07:53:51;9.50;99.90
22436;DHT22;11385;50.822;4.324;2023-04-01T07:56:28;9.50;99.90
22436;DHT22;11385;50.822;4.324;2023-04-01T07:59:22;9.50;99.90
22436;DHT22;11385;50.822;4.324;2023-04-01T08:01:56;9.60;99.90
22436;DHT22;11385;50.822;4.324;2023-04-01T08:04:29;9.60;99.90
22436;DHT22;11385;50.822;4.324;2023-04-01T08:07:08;9.60;99.90
22436;DHT22;11385;50.822;4.324;2023-04-01T08:09:55;9.70;99.90
22436;DHT22;11385;50.822;4.324;2023-04-01T08:12:31;9.70;99.90
22436;DHT22;11385;50.822;4.324;2023-04-01T08:15:19;9.50;99.90
22436;DHT22;11385;50.822;4.324;2023-04-01T08:18:19;9.50;99.90
22436;DHT22;11385;50.822;4.324;2023-04-01T08:20:51;9.50;99.90
22436;DHT22;11385;50.822;4.324;2023-04-01T08:23:27;9.60;99.90
22436;DHT22;11385;50.822;4.324;2023-04-01T08:28:48;9.70;99.90
22436;DHT22;11385;50.822;4.324;2023-04-01T08:31:34;9.70;99.90
22436;DHT22;11385;50.822;4.324;2023-04-01T08:34:04;9.70;99.90
22436;DHT22;11385;50.822;4.324;2023-04-01T08:36:38;9.60;99.90
22436;DHT22;11385;50.822;4.324;2023-04-01T08:39:09;9.60;99.90
22436;DHT22;11385;50.822;4.324;2023-04-01T08:45:12;9.60;99.90
22436;DHT22;11385;50.822;4.324;2023-04-01T08:47:50;9.70;99.90
22436;DHT22;11385;50.822;4.324;2023-04-01T08:54:06;9.50;99.90
22436;DHT22;11385;50.822;4.324;2023-04-01T08:56:38;9.60;99.90
22436;DHT22;11385;50.822;4.324;2023-04-01T08:59:14;9.50;99.90
22436;DHT22;11385;50.822;4.324;2023-04-01T09:02:05;9.60;99.90
22436;DHT22;11385;50.822;4.324;2023-04-01T09:04:52;9.50;99.90
22436;DHT22;11385;50.822;4.324;2023-04-01T09:07:29;9.60;99.90
22436;DHT22;11385;50.822;4.324;2023-04-01T09:10:04;9.60;99.90
22436;DHT22;11385;50.822;4.324;2023-04-01T09:12:51;9.50;99.90
22436;DHT22;11385;50.822;4.324;2023-04-01T09:15:26;9.60;99.90
22436;DHT22;11385;50.822;4.324;2023-04-01T09:18:09;9.70;99.90
22436;DHT22;11385;50.822;4.324;2023-04-01T09:20:59;9.70;99.90
22436;DHT22;11385;50.822;4.324;2023-04-01T09:24:02;9.70;99.90
22436;DHT22;11385;50.822;4.324;2023-04-01T09:26:50;9.70;99.90
22436;DHT22;11385;50.822;4.324;2023-04-01T09:34:52;10.00;99.90
22436;DHT22;11385;50.822;4.324;2023-04-01T09:37:31;9.90;99.90
22436;DHT22;11385;50.822;4.324;2023-04-01T09:42:41;9.90;99.90
22436;DHT22;11385;50.822;4.324;2023-04-01T09:45:18;9.90;99.90
22436;DHT22;11385;50.822;4.324;2023-04-01T09:48:09;9.90;99.90
22436;DHT22;11385;50.822;4.324;2023-04-01T09:50:46;10.00;99.90
22436;DHT22;11385;50.822;4.324;2023-04-01T09:53:23;10.10;99.90
22436;DHT22;11385;50.822;4.324;2023-04-01T09:59:01;10.10;99.90
22436;DHT22;11385;50.822;4.324;2023-04-01T10:01:33;10.00;99.90
22436;DHT22;11385;50.822;4.324;2023-04-01T10:10:16;10.10;99.90
22436;DHT22;11385;50.822;4.324;2023-04-01T10:12:48;10.30;99.90
22436;DHT22;11385;50.822;4.324;2023-04-01T10:15:49;10.50;99.90
22436;DHT22;11385;50.822;4.324;2023-04-01T10:18:39;10.50;99.90
22436;DHT22;11385;50.822;4.324;2023-04-01T10:23:59;10.50;99.90
22436;DHT22;11385;50.822;4.324;2023-04-01T10:26:42;10.50;99.90
22436;DHT22;11385;50.822;4.324;2023-04-01T10:29:21;10.60;99.90
22436;DHT22;11385;50.822;4.324;2023-04-01T10:32:14;10.70;99.90
22436;DHT22;11385;50.822;4.324;2023-04-01T10:43:23;10.40;99.90
22436;DHT22;11385;50.822;4.324;2023-04-01T10:45:59;10.40;99.90
22436;DHT22;11385;50.822;4.324;2023-04-01T10:48:50;10.30;99.90
22436;DHT22;11385;50.822;4.324;2023-04-01T10:54:29;10.30;99.90
22436;DHT22;11385;50.822;4.324;2023-04-01T10:56:59;10.40;99.90
22436;DHT22;11385;50.822;4.324;2023-04-01T10:59:40;10.40;99.90
22436;DHT22;11385;50.822;4.324;2023-04-01T11:02:20;10.40;99.90
22436;DHT22;11385;50.822;4.324;2023-04-01T11:13:39;10.20;99.90
22436;DHT22;11385;50.822;4.324;2023-04-01T11:16:26;10.30;99.90
22436;DHT22;11385;50.822;4.324;2023-04-01T11:19:08;10.40;99.90
22436;DHT22;11385;50.822;4.324;2023-04-01T11:22:33;10.30;99.90
22436;DHT22;11385;50.822;4.324;2023-04-01T11:24:55;10.10;99.90
22436;DHT22;11385;50.822;4.324;2023-04-01T11:28:37;10.30;99.90
22436;DHT22;11385;50.822;4.324;2023-04-01T11:30:27;10.40;99.90
22436;DHT22;11385;50.822;4.324;2023-04-01T11:37:28;10.10;99.90
22436;DHT22;11385;50.822;4.324;2023-04-01T11:39:14;10.10;99.90
22436;DHT22;11385;50.822;4.324;2023-04-01T11:44:24;10.30;99.90
22436;DHT22;11385;50.822;4.324;2023-04-01T11:49:59;10.50;99.90
22436;DHT22;11385;50.822;4.324;2023-04-01T11:52:43;10.70;99.90
22436;DHT22;11385;50.822;4.324;2023-04-01T11:55:19;10.80;99.90
22436;DHT22;11385;50.822;4.324;2023-04-01T12:00:47;10.80;99.90
22436;DHT22;11385;50.822;4.324;2023-04-01T12:03:54;10.90;99.90
22436;DHT22;11385;50.822;4.324;2023-04-01T12:06:34;10.90;99.90
22436;DHT22;11385;50.822;4.324;2023-04-01T12:14:34;10.40;99.90
22436;DHT22;11385;50.822;4.324;2023-04-01T12:19:58;10.50;99.90
22436;DHT22;11385;50.822;4.324;2023-04-01T12:30:42;10.60;99.90
22436;DHT22;11385;50.822;4.324;2023-04-01T12:33:20;10.60;99.90
22436;DHT22;11385;50.822;4.324;2023-04-01T12:35:54;10.50;99.90
22436;DHT22;11385;50.822;4.324;2023-04-01T12:46:56;10.60;99.90
22436;DHT22;11385;50.822;4.324;2023-04-01T12:49:31;10.50;99.90
22436;DHT22;11385;50.822;4.324;2023-04-01T12:52:05;10.30;99.90
22436;DHT22;11385;50.822;4.324;2023-04-01T12:54:44;10.30;99.90
22436;DHT22;11385;50.822;4.324;2023-04-01T12:57:19;10.20;99.90
22436;DHT22;11385;50.822;4.324;2023-04-01T13:00:56;10.30;99.90
22436;DHT22;11385;50.822;4.324;2023-04-01T13:05:38;10.20;99.90
22436;DHT22;11385;50.822;4.324;2023-04-01T13:08:14;10.40;99.90
22436;DHT22;11385;50.822;4.324;2023-04-01T13:10:50;10.40;99.90
22436;DHT22;11385;50.822;4.324;2023-04-01T13:15:58;10.40;99.90
22436;DHT22;11385;50.822;4.324;2023-04-01T13:19:00;10.20;99.90
22436;DHT22;11385;50.822;4.324;2023-04-01T13:21:44;10.10;99.90
22436;DHT22;11385;50.822;4.324;2023-04-01T13:24:34;10.00;99.90
22436;DHT22;11385;50.822;4.324;2023-04-01T13:27:09;10.00;99.90
22436;DHT22;11385;50.822;4.324;2023-04-01T13:29:39;9.90;99.90
22436;DHT22;11385;50.822;4.324;2023-04-01T13:32:23;10.00;99.90
22436;DHT22;11385;50.822;4.324;2023-04-01T13:37:32;10.00;99.90
22436;DHT22;11385;50.822;4.324;2023-04-01T13:40:11;10.00;99.90
22436;DHT22;11385;50.822;4.324;2023-04-01T13:42:40;10.20;99.90
22436;DHT22;11385;50.822;4.324;2023-04-01T13:45:17;10.10;99.90
22436;DHT22;11385;50.822;4.324;2023-04-01T13:48:18;10.10;99.90
22436;DHT22;11385;50.822;4.324;2023-04-01T13:50:46;9.90;99.90
22436;DHT22;11385;50.822;4.324;2023-04-01T13:53:33;9.80;99.90
22436;DHT22;11385;50.822;4.324;2023-04-01T13:56:22;9.70;99.90
22436;DHT22;11385;50.822;4.324;2023-04-01T13:59:03;9.70;99.90
22436;DHT22;11385;50.822;4.324;2023-04-01T14:01:44;9.80;99.90
22436;DHT22;11385;50.822;4.324;2023-04-01T14:04:28;9.80;99.90
22436;DHT22;11385;50.822;4.324;2023-04-01T14:12:39;10.00;99.90
22436;DHT22;11385;50.822;4.324;2023-04-01T14:18:42;9.90;99.90
22436;DHT22;11385;50.822;4.324;2023-04-01T14:21:33;9.80;99.90
22436;DHT22;11385;50.822;4.324;2023-04-01T14:26:58;9.90;99.90
22436;DHT22;11385;50.822;4.324;2023-04-01T14:33:15;9.90;99.90
22436;DHT22;11385;50.822;4.324;2023-04-01T14:35:26;10.10;99.90
22436;DHT22;11385;50.822;4.324;2023-04-01T14:38:02;10.00;99.90
22436;DHT22;11385;50.822;4.324;2023-04-01T14:41:02;10.10;99.90
22436;DHT22;11385;50.822;4.324;2023-04-01T14:43:21;10.10;99.90
22436;DHT22;11385;50.822;4.324;2023-04-01T14:46:20;10.10;99.90
22436;DHT22;11385;50.822;4.324;2023-04-01T14:51:38;10.20;99.90
22436;DHT22;11385;50.822;4.324;2023-04-01T14:54:15;10.20;99.90
22436;DHT22;11385;50.822;4.324;2023-04-01T14:56:47;10.00;99.90
22436;DHT22;11385;50.822;4.324;2023-04-01T14:59:30;9.90;99.90
22436;DHT22;11385;50.822;4.324;2023-04-01T15:02:03;9.90;99.90
22436;DHT22;11385;50.822;4.324;2023-04-01T15:05:00;9.90;99.90
22436;DHT22;11385;50.822;4.324;2023-04-01T15:07:56;9.90;99.90
22436;DHT22;11385;50.822;4.324;2023-04-01T15:10:39;9.80;99.90
22436;DHT22;11385;50.822;4.324;2023-04-01T15:13:14;9.60;99.90
22436;DHT22;11385;50.822;4.324;2023-04-01T15:15:56;9.70;99.90
22436;DHT22;11385;50.822;4.324;2023-04-01T15:21:04;9.80;99.90
22436;DHT22;11385;50.822;4.324;2023-04-01T15:23:45;9.90;99.90
22436;DHT22;11385;50.822;4.324;2023-04-01T15:26:32;9.90;99.90
22436;DHT22;11385;50.822;4.324;2023-04-01T15:29:22;9.80;99.90
22436;DHT22;11385;50.822;4.324;2023-04-01T15:31:42;9.90;99.90
22436;DHT22;11385;50.822;4.324;2023-04-01T15:37:33;9.70;99.90
22436;DHT22;11385;50.822;4.324;2023-04-01T15:40:37;9.60;99.90
22436;DHT22;11385;50.822;4.324;2023-04-01T15:43:12;9.60;99.90
22436;DHT22;11385;50.822;4.324;2023-04-01T15:45:46;9.60;99.90
22436;DHT22;11385;50.822;4.324;2023-04-01T15:48:20;9.50;99.90
22436;DHT22;11385;50.822;4.324;2023-04-01T15:53:37;9.60;99.90
22436;DHT22;11385;50.822;4.324;2023-04-01T15:56:15;9.60;99.90
22436;DHT22;11385;50.822;4.324;2023-04-01T15:58:52;9.50;99.90
22436;DHT22;11385;50.822;4.324;2023-04-01T16:01:26;9.60;99.90
22436;DHT22;11385;50.822;4.324;2023-04-01T16:04:16;9.70;99.90
22436;DHT22;11385;50.822;4.324;2023-04-01T16:06:50;9.60;99.90
22436;DHT22;11385;50.822;4.324;2023-04-01T16:09:28;9.60;99.90
22436;DHT22;11385;50.822;4.324;2023-04-01T16:12:19;9.60;99.90
22436;DHT22;11385;50.822;4.324;2023-04-01T16:14:55;9.50;99.90
22436;DHT22;11385;50.822;4.324;2023-04-01T16:18:17;9.50;99.90
22436;DHT22;11385;50.822;4.324;2023-04-01T16:21:01;9.50;99.90
22436;DHT22;11385;50.822;4.324;2023-04-01T16:23:40;9.60;99.90
22436;DHT22;11385;50.822;4.324;2023-04-01T16:26:19;9.60;99.90
22436;DHT22;11385;50.822;4.324;2023-04-01T16:29:09;9.60;99.90
22436;DHT22;11385;50.822;4.324;2023-04-01T16:31:43;9.70;99.90
22436;DHT22;11385;50.822;4.324;2023-04-01T16:34:08;9.60;99.90
22436;DHT22;11385;50.822;4.324;2023-04-01T16:36:47;9.50;99.90
22436;DHT22;11385;50.822;4.324;2023-04-01T16:42:35;9.40;99.90
22436;DHT22;11385;50.822;4.324;2023-04-01T16:45:26;9.40;99.90
22436;DHT22;11385;50.822;4.324;2023-04-01T16:47:56;9.30;99.90
22436;DHT22;11385;50.822;4.324;2023-04-01T16:50:29;9.40;99.90
22436;DHT22;11385;50.822;4.324;2023-04-01T16:53:08;9.30;99.90
22436;DHT22;11385;50.822;4.324;2023-04-01T16:55:49;9.40;99.90
22436;DHT22;11385;50.822;4.324;2023-04-01T16:58:23;9.40;99.90
22436;DHT22;11385;50.822;4.324;2023-04-01T17:00:53;9.40;99.90
22436;DHT22;11385;50.822;4.324;2023-04-01T17:03:27;9.40;99.90
22436;DHT22;11385;50.822;4.324;2023-04-01T17:06:14;9.50;99.90
22436;DHT22;11385;50.822;4.324;2023-04-01T17:09:02;9.50;99.90
22436;DHT22;11385;50.822;4.324;2023-04-01T17:11:33;9.50;99.90
22436;DHT22;11385;50.822;4.324;2023-04-01T17:14:12;9.60;99.90
22436;DHT22;11385;50.822;4.324;2023-04-01T17:16:43;9.50;99.90
22436;DHT22;11385;50.822;4.324;2023-04-01T17:24:51;9.40;99.90
22436;DHT22;11385;50.822;4.324;2023-04-01T17:27:30;9.40;99.90
22436;DHT22;11385;50.822;4.324;2023-04-01T17:32:47;9.40;99.90
22436;DHT22;11385;50.822;4.324;2023-04-01T17:35:32;9.40;99.90
22436;DHT22;11385;50.822;4.324;2023-04-01T17:39:30;9.50;99.90
22436;DHT22;11385;50.822;4.324;2023-04-01T17:41:42;9.50;99.90
22436;DHT22;11385;50.822;4.324;2023-04-01T17:44:31;9.50;99.90
22436;DHT22;11385;50.822;4.324;2023-04-01T17:47:21;9.40;99.90
22436;DHT22;11385;50.822;4.324;2023-04-01T17:49:57;9.40;99.90
22436;DHT22;11385;50.822;4.324;2023-04-01T17:52:28;9.40;99.90
22436;DHT22;11385;50.822;4.324;2023-04-01T17:55:11;9.40;99.90
22436;DHT22;11385;50.822;4.324;2023-04-01T17:57:45;9.40;99.90
22436;DHT22;11385;50.822;4.324;2023-04-01T18:00:33;9.40;99.90
22436;DHT22;11385;50.822;4.324;2023-04-01T18:03:24;9.30;99.90
22436;DHT22;11385;50.822;4.324;2023-04-01T18:06:04;9.20;99.90
22436;DHT22;11385;50.822;4.324;2023-04-01T18:08:40;9.20;99.90
22436;DHT22;11385;50.822;4.324;2023-04-01T18:11:16;9.20;99.90
22436;DHT22;11385;50.822;4.324;2023-04-01T18:16:45;9.20;99.90
22436;DHT22;11385;50.822;4.324;2023-04-01T18:22:15;9.30;99.90
22436;DHT22;11385;50.822;4.324;2023-04-01T18:24:44;9.20;99.90
22436;DHT22;11385;50.822;4.324;2023-04-01T18:27:16;9.20;99.90
22436;DHT22;11385;50.822;4.324;2023-04-01T18:29:50;9.20;99.90
22436;DHT22;11385;50.822;4.324;2023-04-01T18:32:37;9.20;99.90
22436;DHT22;11385;50.822;4.324;2023-04-01T18:38:00;9.30;99.90
22436;DHT22;11385;50.822;4.324;2023-04-01T18:40:36;9.20;99.90
22436;DHT22;11385;50.822;4.324;2023-04-01T18:45:50;9.30;99.90
22436;DHT22;11385;50.822;4.324;2023-04-01T18:48:33;9.20;99.90
22436;DHT22;11385;50.822;4.324;2023-04-01T18:51:01;9.10;99.90
22436;DHT22;11385;50.822;4.324;2023-04-01T18:53:35;9.10;99.90
22436;DHT22;11385;50.822;4.324;2023-04-01T18:56:12;9.10;99.90
22436;DHT22;11385;50.822;4.324;2023-04-01T18:58:51;9.10;99.90
22436;DHT22;11385;50.822;4.324;2023-04-01T19:01:28;9.10;99.90
22436;DHT22;11385;50.822;4.324;2023-04-01T19:04:10;9.10;99.90
22436;DHT22;11385;50.822;4.324;2023-04-01T19:06:46;9.10;99.90
22436;DHT22;11385;50.822;4.324;2023-04-01T19:09:49;9.10;99.90
22436;DHT22;11385;50.822;4.324;2023-04-01T19:12:38;9.20;99.90
22436;DHT22;11385;50.822;4.324;2023-04-01T19:15:20;9.20;99.90